Time;durP1;ratioP1;P1;durP2;ratioP2;P2;SDS_P1;SDS_P2;PMS_P1;PMS_P2;Temp;Humidity;BMP_temperature;BMP_pressure;BME280_temperature;BME280_humidity;BME280_pressure;Samples;Min_cycle;Max_cycle;Signal;HPM_P1;HPM_P2
2021/04/25 10:00:59;;;;;;;31.63;30.38;;;;;;;;;;5090891;27;20846;-69
2021/04/25 10:03:34;;;;;;;33.08;31.77;;;;;;;;;;5090881;28;20168;-70
2021/04/25 10:06:01;;;;;;;32.47;31.23;;;;;;;;;;5090902;28;20220;-70
2021/04/25 10:08:31;;;;;;;34.22;32.85;;;;;;;;;;5090873;28;20234;-70
2021/04/25 10:10:57;;;;;;;34.90;33.50;;;;;;;;;;5090777;28;20195;-70
2021/04/25 10:13:27;;;;;;;33.90;32.63;;;;;;;;;;5090805;28;20214;-70
2021/04/25 10:15:52;;;;;;;34.90;33.50;;;;;;;;;;5090689;28;20195;-70
2021/04/25 10:18:19;;;;;;;34.08;32.88;;;;;;;;;;5090609;28;20636;-70
2021/04/25 10:20:48;;;;;;;33.58;32.38;;;;;;;;;;5090453;28;20196;-70
2021/04/25 10:23:15;;;;;;;33.95;32.65;;;;;;;;;;5089263;28;20175;-70
2021/04/25 10:25:41;;;;;;;34.72;33.35;;;;;;;;;;5090304;28;20171;-69
2021/04/25 10:28:14;;;;;;;36.00;34.60;;;;;;;;;;5090535;28;20152;-69
2021/04/25 10:30:40;;;;;;;34.40;33.10;;;;;;;;;;5090317;28;20536;-69
2021/04/25 10:33:07;;;;;;;35.78;34.38;;;;;;;;;;5090218;28;20183;-69
2021/04/25 10:49:40;;;;;;;30.48;29.38;;;;;;;;;;5111294;27;20454;-69
2021/04/25 10:52:24;;;;;;;33.30;32.10;;;;;;;;;;5111259;28;20190;-69
2021/04/25 10:55:09;;;;;;;33.70;32.50;;;;;;;;;;5109852;28;20321;-69
2021/04/25 10:57:56;;;;;;;36.03;34.60;;;;;;;;;;5111207;28;20520;-69
2021/04/25 11:03:17;;;;;;;34.72;33.42;;;;;;;;;;5111071;28;20193;-69
2021/04/25 11:05:44;;;;;;;33.10;31.90;;;;;;;;;;5106949;28;20175;-69
2021/04/25 11:08:13;;;;;;;31.30;30.20;;;;;;;;;;5110740;28;20195;-69
2021/04/25 11:10:47;;;;;;;32.83;31.63;;;;;;;;;;5110868;28;20170;-69
2021/04/25 11:13:31;;;;;;;34.70;33.40;;;;;;;;;;5110789;28;20171;-69
2021/04/25 11:19:09;;;;;;;34.60;32.90;;;;;;;;;;5110991;28;20181;-69
2021/04/25 11:21:47;;;;;;;33.83;32.53;;;;;;;;;;5110680;28;20187;-69
2021/04/25 11:24:13;;;;;;;33.58;32.38;;;;;;;;;;5110568;28;20174;-69
2021/04/25 11:26:43;;;;;;;34.20;32.90;;;;;;;;;;5110533;28;20175;-70
2021/04/25 11:29:23;;;;;;;34.35;33.05;;;;;;;;;;5110463;28;20199;-69
2021/04/25 11:34:25;;;;;;;39.85;37.08;;;;;;;;;;5110540;28;20175;-70
2021/04/25 11:37:04;;;;;;;34.80;33.50;;;;;;;;;;5110583;28;20166;-70
2021/04/25 11:39:44;;;;;;;33.63;32.42;;;;;;;;;;5110546;28;20321;-69
2021/04/25 11:42:11;;;;;;;35.38;34.03;;;;;;;;;;5110130;28;20183;-69
2021/04/25 11:44:38;;;;;;;34.25;32.75;;;;;;;;;;5108985;28;20527;-70
2021/04/25 11:47:07;;;;;;;34.40;33.20;;;;;;;;;;5109912;28;20164;-70
2021/04/25 11:49:34;;;;;;;32.78;31.55;;;;;;;;;;5110197;28;20207;-69
2021/04/25 11:52:07;;;;;;;34.78;33.38;;;;;;;;;;5110081;28;20167;-69
2021/04/25 11:54:33;;;;;;;35.10;33.72;;;;;;;;;;5110103;28;20517;-70
2021/04/25 11:57:09;;;;;;;33.80;32.40;;;;;;;;;;5110001;28;20190;-69
2021/04/25 11:59:36;;;;;;;35.38;34.08;;;;;;;;;;5102906;28;20173;-70
2021/04/25 12:02:06;;;;;;;35.42;34.13;;;;;;;;;;5094983;28;20201;-69
2021/04/25 12:04:48;;;;;;;39.30;37.78;;;;;;;;;;5096242;28;20164;-68
2021/04/25 12:07:35;;;;;;;35.28;33.97;;;;;;;;;;5096126;28;20547;-70
2021/04/25 12:10:01;;;;;;;33.70;32.42;;;;;;;;;;5095962;28;20164;-68
2021/04/25 12:12:27;;;;;;;37.72;36.33;;;;;;;;;;5096061;28;20565;-68
2021/04/25 12:15:05;;;;;;;36.40;35.03;;;;;;;;;;5096187;28;20617;-69
2021/04/25 12:17:31;;;;;;;33.97;32.78;;;;;;;;;;5096020;28;20172;-69
2021/04/25 12:20:01;;;;;;;33.90;32.70;;;;;;;;;;5095955;28;20532;-69
2021/04/25 12:22:28;;;;;;;34.95;33.65;;;;;;;;;;5095816;28;20198;-72
2021/04/25 12:24:55;;;;;;;35.75;34.28;;;;;;;;;;5095918;28;20164;-72
2021/04/25 12:27:21;;;;;;;36.33;34.97;;;;;;;;;;5094517;28;20198;-72
2021/04/25 12:29:48;;;;;;;32.67;31.50;;;;;;;;;;5094512;28;20164;-72
2021/04/25 12:32:21;;;;;;;35.83;34.47;;;;;;;;;;5095681;28;20164;-72
2021/04/25 12:35:01;;;;;;;35.80;34.47;;;;;;;;;;5094289;28;20694;-72
2021/04/25 12:37:53;;;;;;;38.50;36.92;;;;;;;;;;5094350;28;20305;-67
2021/04/25 12:40:27;;;;;;;36.15;34.75;;;;;;;;;;5094321;28;20179;-69
2021/04/25 12:43:05;;;;;;;35.38;34.08;;;;;;;;;;5095550;28;20172;-68
2021/04/25 12:45:31;;;;;;;37.92;36.42;;;;;;;;;;5095436;28;20167;-69
2021/04/25 12:48:55;;;;;;;36.83;35.45;;;;;;;;;;5090949;28;20508;-68
2021/04/25 12:51:21;;;;;;;40.75;39.15;;;;;;;;;;5090884;28;20180;-68
2021/04/25 12:53:59;;;;;;;39.08;37.58;;;;;;;;;;5090707;28;20213;-69
2021/04/25 12:56:25;;;;;;;36.55;35.08;;;;;;;;;;5090753;28;20164;-69
2021/04/25 12:59:02;;;;;;;37.05;35.55;;;;;;;;;;5090768;28;20206;-69
2021/04/25 13:01:28;;;;;;;39.30;37.70;;;;;;;;;;5090692;28;20209;-69
2021/04/25 13:03:55;;;;;;;38.50;36.95;;;;;;;;;;5090642;28;20626;-69
2021/04/25 13:06:39;;;;;;;37.92;36.42;;;;;;;;;;5090512;28;20259;-71
2021/04/25 13:09:16;;;;;;;37.38;35.92;;;;;;;;;;5090563;28;20645;-71
2021/04/25 13:11:42;;;;;;;37.10;35.70;;;;;;;;;;5089225;28;20167;-71
2021/04/25 13:14:09;;;;;;;37.25;35.85;;;;;;;;;;5090470;28;20581;-71
2021/04/25 13:16:36;;;;;;;38.78;37.17;;;;;;;;;;5090287;28;20172;-71
2021/04/25 13:19:03;;;;;;;38.20;36.70;;;;;;;;;;5090407;28;20235;-71
2021/04/25 13:21:42;;;;;;;39.08;37.53;;;;;;;;;;5090278;28;20645;-71
2021/04/25 13:24:09;;;;;;;39.53;37.83;;;;;;;;;;5090393;28;20560;-70
2021/04/25 13:26:35;;;;;;;38.88;37.38;;;;;;;;;;5090081;28;20173;-70
2021/04/25 13:29:01;;;;;;;38.30;36.88;;;;;;;;;;5090147;28;20179;-70
2021/04/25 13:31:27;;;;;;;42.85;40.72;;;;;;;;;;5088787;28;20180;-70
2021/04/25 13:33:53;;;;;;;42.58;40.88;;;;;;;;;;5090371;28;20655;-70
2021/04/25 13:36:21;;;;;;;45.03;43.20;;;;;;;;;;5090078;28;20168;-71
2021/04/25 13:38:47;;;;;;;43.22;41.47;;;;;;;;;;5089895;28;20213;-71
2021/04/25 13:41:13;;;;;;;84.40;80.13;;;;;;;;;;5088705;28;20183;-71
2021/04/25 13:43:39;;;;;;;63.72;60.70;;;;;;;;;;5089599;28;20165;-72
2021/04/25 13:46:05;;;;;;;46.00;44.10;;;;;;;;;;5088379;28;20525;-71
2021/04/25 13:48:31;;;;;;;43.42;41.60;;;;;;;;;;5089298;28;20219;-71
2021/04/25 13:50:57;;;;;;;45.35;43.50;;;;;;;;;;5089654;28;20170;-71
2021/04/25 13:53:23;;;;;;;48.53;46.53;;;;;;;;;;5089443;28;20164;-71
2021/04/25 13:55:49;;;;;;;45.50;43.45;;;;;;;;;;5089587;28;20445;-71
2021/04/25 13:58:15;;;;;;;45.90;44.00;;;;;;;;;;5086033;28;20172;-71
2021/04/25 14:00:41;;;;;;;46.35;44.50;;;;;;;;;;5075684;28;20164;-70
2021/04/25 14:03:08;;;;;;;43.83;42.03;;;;;;;;;;5075905;28;20259;-70
2021/04/25 14:05:34;;;;;;;46.08;44.25;;;;;;;;;;5075890;28;20169;-71
2021/04/25 14:08:00;;;;;;;43.92;42.13;;;;;;;;;;5075689;28;20200;-71
2021/04/25 14:10:27;;;;;;;45.30;43.45;;;;;;;;;;5074479;28;20180;-71
2021/04/25 14:12:54;;;;;;;46.33;44.42;;;;;;;;;;5075686;28;20520;-71
2021/04/25 14:15:20;;;;;;;46.10;44.25;;;;;;;;;;5074464;28;20195;-71
2021/04/25 14:17:47;;;;;;;46.97;45.08;;;;;;;;;;5075640;28;20553;-71
2021/04/25 14:20:14;;;;;;;44.50;42.60;;;;;;;;;;5075628;28;20309;-71
2021/04/25 14:22:40;;;;;;;45.05;43.25;;;;;;;;;;5075544;28;20625;-71
2021/04/25 14:25:06;;;;;;;46.42;44.53;;;;;;;;;;5074281;28;20180;-71
2021/04/25 14:27:32;;;;;;;43.03;41.22;;;;;;;;;;5075370;28;20204;-71
2021/04/25 14:29:58;;;;;;;42.05;40.40;;;;;;;;;;5075467;28;20173;-71
2021/04/25 14:32:25;;;;;;;45.50;43.70;;;;;;;;;;5075352;28;20187;-71
2021/04/25 14:34:51;;;;;;;43.05;41.15;;;;;;;;;;5074055;28;20179;-71
2021/04/25 14:37:17;;;;;;;46.92;45.03;;;;;;;;;;5075384;28;20165;-71
2021/04/25 14:39:43;;;;;;;49.13;47.13;;;;;;;;;;5075160;28;20653;-71
2021/04/25 14:42:09;;;;;;;50.38;48.33;;;;;;;;;;5075113;28;20172;-71
2021/04/25 14:44:35;;;;;;;46.38;44.45;;;;;;;;;;5075111;28;20648;-71
2021/04/25 14:47:01;;;;;;;46.20;44.38;;;;;;;;;;5074704;28;20228;-71
2021/04/25 14:49:27;;;;;;;49.53;47.42;;;;;;;;;;5073677;28;20172;-72
2021/04/25 14:51:53;;;;;;;44.55;42.63;;;;;;;;;;5074977;28;20171;-71
2021/04/25 14:57:22;;;;;;;50.60;48.47;;;;;;;;;;5074964;28;20167;-72
2021/04/25 14:59:48;;;;;;;47.30;45.40;;;;;;;;;;5074834;28;20629;-72
2021/04/25 15:02:14;;;;;;;49.63;47.63;;;;;;;;;;5073467;28;20171;-72
2021/04/25 15:04:40;;;;;;;46.75;44.83;;;;;;;;;;5074791;28;20172;-72
2021/04/25 15:07:06;;;;;;;45.38;43.53;;;;;;;;;;5073206;28;20204;-72
2021/04/25 15:09:32;;;;;;;45.80;43.28;;;;;;;;;;5073488;28;20195;-72
2021/04/25 15:11:58;;;;;;;46.15;44.20;;;;;;;;;;5073604;28;20172;-72
2021/04/25 15:14:24;;;;;;;46.58;44.72;;;;;;;;;;5074516;28;20194;-72
2021/04/25 15:16:50;;;;;;;48.35;46.38;;;;;;;;;;5073143;28;20188;-72
2021/04/25 15:19:16;;;;;;;50.60;48.40;;;;;;;;;;5074400;28;20229;-72
2021/04/25 15:21:42;;;;;;;46.92;44.92;;;;;;;;;;5074258;28;20173;-72
2021/04/25 15:24:09;;;;;;;48.05;45.97;;;;;;;;;;5073046;28;20662;-72
2021/04/25 15:26:35;;;;;;;45.15;43.35;;;;;;;;;;5074181;28;20172;-72
2021/04/25 15:29:01;;;;;;;45.10;43.10;;;;;;;;;;5072865;28;20651;-72
2021/04/25 15:31:29;;;;;;;43.58;41.88;;;;;;;;;;5074228;28;20164;-72
2021/04/25 15:33:55;;;;;;;45.80;43.80;;;;;;;;;;5074059;28;20259;-72
2021/04/25 15:36:21;;;;;;;49.33;47.17;;;;;;;;;;5074089;28;20677;-72
2021/04/25 15:38:47;;;;;;;47.60;45.70;;;;;;;;;;5074110;28;20558;-72
2021/04/25 15:41:15;;;;;;;46.53;44.67;;;;;;;;;;5074187;28;20180;-72
2021/04/25 15:43:41;;;;;;;44.40;42.67;;;;;;;;;;5073875;28;20234;-71
2021/04/25 15:46:07;;;;;;;48.47;46.53;;;;;;;;;;5073853;28;20165;-72
2021/04/25 15:48:33;;;;;;;46.05;44.17;;;;;;;;;;5072190;28;20642;-72
2021/04/25 15:50:59;;;;;;;49.20;47.20;;;;;;;;;;5072475;28;20172;-72
2021/04/25 15:53:25;;;;;;;48.33;46.38;;;;;;;;;;5072699;28;20682;-72
2021/04/25 15:55:51;;;;;;;46.83;44.88;;;;;;;;;;5073614;28;20165;-72
2021/04/25 15:58:17;;;;;;;49.55;47.50;;;;;;;;;;5072391;28;20180;-71
2021/04/25 16:00:44;;;;;;;50.42;47.95;;;;;;;;;;5073590;28;20168;-71
2021/04/25 16:03:11;;;;;;;50.40;48.17;;;;;;;;;;5073468;28;20195;-71
2021/04/25 16:05:37;;;;;;;46.35;44.47;;;;;;;;;;5073463;28;20192;-71
2021/04/25 16:08:05;;;;;;;45.15;43.35;;;;;;;;;;5073413;28;20739;-71
2021/04/25 16:10:32;;;;;;;45.97;44.13;;;;;;;;;;5072370;28;20533;-71
2021/04/25 16:12:59;;;;;;;50.00;47.42;;;;;;;;;;5073458;28;20694;-71
2021/04/25 16:15:25;;;;;;;43.50;41.78;;;;;;;;;;5073407;28;20168;-71
2021/04/25 16:17:51;;;;;;;45.95;44.05;;;;;;;;;;5073417;28;20648;-71
2021/04/25 16:20:17;;;;;;;47.90;45.67;;;;;;;;;;5073391;28;20195;-71
2021/04/25 16:22:43;;;;;;;48.50;46.42;;;;;;;;;;5071873;28;20208;-71
2021/04/25 16:26:26;;;;;;;45.75;43.92;;;;;;;;;;5070213;28;20854;-71
2021/04/25 16:28:52;;;;;;;48.65;46.65;;;;;;;;;;5070588;28;20187;-70
2021/04/25 16:31:19;;;;;;;49.40;47.35;;;;;;;;;;5070108;28;20559;-71
2021/04/25 16:33:45;;;;;;;45.70;43.88;;;;;;;;;;5070293;28;20165;-71
2021/04/25 16:36:11;;;;;;;45.60;43.72;;;;;;;;;;5068991;28;20204;-71
2021/04/25 16:38:37;;;;;;;46.78;44.78;;;;;;;;;;5070251;28;20160;-72
2021/04/25 16:41:04;;;;;;;47.88;45.92;;;;;;;;;;5070276;28;20176;-72
2021/04/25 16:43:30;;;;;;;48.80;46.75;;;;;;;;;;5070244;28;20172;-72
2021/04/25 16:45:56;;;;;;;50.58;48.40;;;;;;;;;;5070092;28;20716;-72
2021/04/25 16:48:22;;;;;;;49.42;47.42;;;;;;;;;;5070231;28;20180;-71
2021/04/25 16:50:48;;;;;;;50.20;48.00;;;;;;;;;;5068803;28;20165;-72
2021/04/25 16:53:14;;;;;;;49.90;47.85;;;;;;;;;;5068939;28;20165;-71
2021/04/25 16:55:41;;;;;;;45.92;44.03;;;;;;;;;;5069538;28;20505;-71
2021/04/25 16:58:08;;;;;;;46.35;44.42;;;;;;;;;;5068909;28;20196;-71
2021/04/25 17:00:34;;;;;;;47.25;45.05;;;;;;;;;;5069833;28;20607;-71
2021/04/25 17:03:00;;;;;;;47.33;45.33;;;;;;;;;;5068270;28;20190;-71
2021/04/25 17:05:26;;;;;;;51.33;49.20;;;;;;;;;;5068315;28;20193;-71
2021/04/25 17:07:53;;;;;;;48.67;46.63;;;;;;;;;;5069658;28;20165;-71
2021/04/25 17:10:20;;;;;;;51.05;48.97;;;;;;;;;;5069636;28;20168;-71
2021/04/25 17:12:46;;;;;;;50.80;48.55;;;;;;;;;;5069684;28;20222;-71
2021/04/25 17:15:13;;;;;;;51.05;48.92;;;;;;;;;;5069916;28;20634;-71
2021/04/25 17:17:40;;;;;;;50.33;48.28;;;;;;;;;;5069859;28;20215;-71
2021/04/25 17:20:07;;;;;;;48.13;46.20;;;;;;;;;;5069839;28;20199;-71
2021/04/25 17:22:33;;;;;;;48.63;46.63;;;;;;;;;;5068430;28;20271;-71
2021/04/25 17:24:59;;;;;;;50.28;48.22;;;;;;;;;;5069237;28;20224;-71
2021/04/25 17:27:25;;;;;;;47.20;45.10;;;;;;;;;;5068442;28;20171;-71
2021/04/25 17:29:51;;;;;;;50.58;48.38;;;;;;;;;;5069316;28;20188;-70
2021/04/25 17:32:19;;;;;;;48.83;46.88;;;;;;;;;;5069213;28;20621;-70
2021/04/25 17:34:45;;;;;;;48.78;46.80;;;;;;;;;;5069079;28;20255;-70
2021/04/25 17:37:11;;;;;;;49.55;47.55;;;;;;;;;;5059299;28;20198;-69
2021/04/25 17:39:37;;;;;;;49.90;47.75;;;;;;;;;;5056092;28;20292;-71
2021/04/25 17:42:03;;;;;;;48.55;46.58;;;;;;;;;;5055881;28;20525;-70
2021/04/25 17:44:29;;;;;;;48.35;46.40;;;;;;;;;;5055700;28;20200;-70
2021/04/25 17:46:55;;;;;;;49.75;47.72;;;;;;;;;;5055685;28;20169;-70
2021/04/25 17:49:21;;;;;;;49.53;47.50;;;;;;;;;;5055718;28;20252;-70
